Mount Hermon, Kentucky
Current Conditions -  °F | °C
As of 11:15 AM on Thursday 18 Dec 2014 (Local Time) from KGLW Reporting Station
Overcast Overcast  
Wind Chill: 29°   Ceiling: 4600
Heat Index: 33°   Visibility: 7mi
Dew Point: 28°   Wind: 5mph
Humidity: 81%   Direction: 360°N
Pressure: 30.24"   Gusts: NA
Location:  36.81°N, 85.82°W
Report Text: KGLW 181715Z AUTO 36004KT 7SM SCT011 OVC046 01/M02 A3024 RMK AO2 T00061024
Loading
Personal Weather Stations






























Interactive Weather Map New forecast layout! Learn more

10-Day Weather Forecast

Advertisements
Track Severe Weather on mobile